createdAt,value
2022-08-23T06:19:10.266Z,30.23
2022-08-23T07:41:35.796Z,20.80
2022-08-23T07:56:29.435Z,18.48
2022-08-23T07:58:56.587Z,17.70
2022-08-23T08:01:26.275Z,19.48
2022-08-23T08:03:55.992Z,18.13
2022-08-23T08:06:35.105Z,18.77
2022-08-23T08:09:04.624Z,18.00
2022-08-23T08:11:35.143Z,18.75
2022-08-23T08:14:08.726Z,17.73
2022-08-23T08:16:39.535Z,19.00
2022-08-23T08:46:59.786Z,17.27
2022-08-23T08:57:03.820Z,15.07
2022-08-23T08:59:58.369Z,16.52
2022-08-23T09:33:26.284Z,10.52
2022-08-23T09:36:05.088Z,10.18
2022-08-23T09:38:33.495Z,10.25
2022-08-23T09:41:00.909Z,10.82
2022-08-23T09:43:31.202Z,9.32
2022-08-23T09:46:01.868Z,8.60
2022-08-23T09:48:43.674Z,8.63
2022-08-23T09:51:31.694Z,9.13
2022-08-23T09:54:12.111Z,9.60
2022-08-23T09:56:45.178Z,8.90
2022-08-23T09:59:26.437Z,8.85
2022-08-23T10:01:57.220Z,7.68
2022-08-23T10:04:46.945Z,7.28
2022-08-23T10:07:42.758Z,7.82
2022-08-23T10:10:35.778Z,7.60
2022-08-23T10:13:05.237Z,7.90
2022-08-23T10:16:04.013Z,6.60
2022-08-23T10:18:55.975Z,5.80
2022-08-23T10:22:01.710Z,5.80
2022-08-23T10:24:53.099Z,5.35
2022-08-23T10:27:49.729Z,5.43
2022-08-23T10:30:20.953Z,6.00
2022-08-23T10:33:18.370Z,5.30
2022-08-23T10:36:04.961Z,5.65
2022-08-23T10:38:45.168Z,6.07
2022-08-23T10:41:39.328Z,5.65
2022-08-23T10:44:38.936Z,5.88
2022-08-23T10:47:27.434Z,5.60
2022-08-23T10:49:56.026Z,5.30
2022-08-23T10:52:51.799Z,5.97
2022-08-23T10:55:39.399Z,5.93
2022-08-23T10:58:10.436Z,6.65
2022-08-23T11:00:38.435Z,6.10
2022-08-23T11:03:20.465Z,6.18
2022-08-23T11:06:23.967Z,6.20
2022-08-23T11:09:05.968Z,6.03
2022-08-23T11:11:43.589Z,5.60
2022-08-23T11:14:26.157Z,7.10
2022-08-23T11:16:59.880Z,6.00
2022-08-23T11:20:07.156Z,5.88
2022-08-23T11:22:54.032Z,5.55
2022-08-23T11:25:21.038Z,6.05
2022-08-23T11:27:48.275Z,6.03
2022-08-23T11:30:34.201Z,6.00
2022-08-23T11:33:10.374Z,5.93
2022-08-23T11:35:44.139Z,5.68
2022-08-23T11:38:13.242Z,5.55
2022-08-23T11:40:57.482Z,5.57
2022-08-23T11:43:38.281Z,5.07
2022-08-23T11:46:16.943Z,5.90
2022-08-23T11:48:54.335Z,5.25
2022-08-23T11:51:56.687Z,5.40
2022-08-23T11:54:27.976Z,5.13
2022-08-23T11:57:04.111Z,5.80
2022-08-23T12:00:01.607Z,5.30
2022-08-23T12:02:50.669Z,5.15
2022-08-23T12:05:23.599Z,5.45
2022-08-23T12:07:56.790Z,5.47
2022-08-23T12:10:42.255Z,5.65
2022-08-23T12:13:22.409Z,5.90
2022-08-23T12:16:16.917Z,5.18
2022-08-23T12:18:47.711Z,4.80
2022-08-23T12:21:21.085Z,5.50
2022-08-23T12:23:55.038Z,5.00
2022-08-23T12:26:52.225Z,4.97
2022-08-23T12:29:47.595Z,5.60
2022-08-23T12:32:50.562Z,5.70
2022-08-23T12:36:01.938Z,5.72
2022-08-23T12:38:41.582Z,5.63
2022-08-23T12:41:25.782Z,5.78
2022-08-23T12:44:06.227Z,5.57
2022-08-23T12:46:45.942Z,5.50
2022-08-23T12:49:31.847Z,5.18
2022-08-23T12:52:07.108Z,5.32
2022-08-23T12:54:38.654Z,5.65
2022-08-23T12:57:11.856Z,5.38
2022-08-23T13:00:17.564Z,5.20
2022-08-23T13:03:01.451Z,5.22
2022-08-23T13:05:31.827Z,5.00
2022-08-23T13:08:01.404Z,5.32
2022-08-23T13:10:28.498Z,4.85
2022-08-23T13:12:56.880Z,4.90
2022-08-23T13:15:47.599Z,4.70
2022-08-23T13:18:28.125Z,4.67
2022-08-23T13:21:20.654Z,4.70
2022-08-23T13:23:48.156Z,4.30
2022-08-23T13:26:40.493Z,4.38
2022-08-23T13:29:09.697Z,4.38
2022-08-23T13:32:03.184Z,4.33
2022-08-23T13:34:47.192Z,4.50
2022-08-23T13:37:22.184Z,4.20
2022-08-23T13:39:58.826Z,4.10
2022-08-23T13:42:42.597Z,4.55
2022-08-23T13:45:14.441Z,4.53
2022-08-23T13:47:48.741Z,4.63
2022-08-23T13:50:25.338Z,4.85
2022-08-23T13:55:55.565Z,4.47
2022-08-23T14:05:58.461Z,4.70
2022-08-23T14:08:25.412Z,4.65
2022-08-23T14:10:53.044Z,4.70
2022-08-23T14:13:25.841Z,5.00
2022-08-23T14:15:58.591Z,5.25
2022-08-23T14:18:26.140Z,5.63
2022-08-23T14:20:53.128Z,4.88
2022-08-23T14:23:20.249Z,5.40
2022-08-23T14:25:48.712Z,5.07
2022-08-23T14:28:15.705Z,5.10
2022-08-23T14:30:42.796Z,5.47
2022-08-23T14:57:42.837Z,5.80
2022-08-23T15:00:14.746Z,5.90
2022-08-23T15:02:46.503Z,6.00
2022-08-23T15:05:14.482Z,6.15
2022-08-23T15:07:41.660Z,5.50
2022-08-23T15:13:17.463Z,5.40
2022-08-23T15:15:49.191Z,5.25
2022-08-23T15:18:17.799Z,5.40
2022-08-23T15:20:45.741Z,5.53
2022-08-23T15:23:13.216Z,5.57
2022-08-23T15:25:42.646Z,5.28
2022-08-23T15:28:13.608Z,5.45
2022-08-23T15:30:41.977Z,5.15
